Time,TemperatureF,DewpointF,PressureIn,WindDirection,WindDirectionDegrees,WindSpeedMPH,WindSpeedGustMPH,Humidity,HourlyPrecipIn,Conditions,Clouds,dailyrainin,SoftwareType,DateUTC
2013-08-31 00:00:00,72.2,69.7,29.75,WSW,239,0.0,7.0,92,0.00,,,0.00,Wunderground v.1.15,2013-08-31 04:00:00,
2013-08-31 00:05:00,71.5,68.7,29.75,WSW,239,0.0,7.0,91,0.00,,,0.00,Wunderground v.1.15,2013-08-31 04:05:00,
2013-08-31 00:10:00,71.1,68.7,29.75,WSW,239,0.0,7.0,92,0.00,,,0.00,Wunderground v.1.15,2013-08-31 04:10:00,
2013-08-31 00:15:00,70.8,68.4,29.75,WSW,239,0.0,7.0,92,0.00,,,0.00,Wunderground v.1.15,2013-08-31 04:15:00,
2013-08-31 00:20:00,70.6,68.5,29.75,WSW,239,0.0,7.0,93,0.00,,,0.00,Wunderground v.1.15,2013-08-31 04:20:00,
2013-08-31 00:25:00,70.5,68.4,29.76,WSW,239,0.0,7.0,93,0.00,,,0.00,Wunderground v.1.15,2013-08-31 04:25:00,
2013-08-31 00:30:00,70.4,68.3,29.76,WSW,239,0.0,7.0,93,0.00,,,0.00,Wunderground v.1.15,2013-08-31 04:30:00,
2013-08-31 00:40:00,70.1,68.3,29.75,WSW,239,0.0,7.0,94,0.00,,,0.00,Wunderground v.1.15,2013-08-31 04:40:00,
2013-08-31 00:45:00,69.9,68.1,29.75,WSW,239,0.0,7.0,94,0.00,,,0.00,Wunderground v.1.15,2013-08-31 04:45:00,
2013-08-31 00:50:00,69.8,68.0,29.75,WSW,239,0.0,7.0,94,0.00,,,0.00,Wunderground v.1.15,2013-08-31 04:50:00,
2013-08-31 00:55:00,69.7,67.9,29.74,WSW,239,0.0,7.0,94,0.00,,,0.00,Wunderground v.1.15,2013-08-31 04:55:00,
2013-08-31 01:00:00,69.6,67.8,29.75,WSW,239,0.0,7.0,94,0.00,,,0.00,Wunderground v.1.15,2013-08-31 05:00:00,
2013-08-31 01:05:00,69.5,67.7,29.74,WSW,239,0.0,7.0,94,0.00,,,0.00,Wunderground v.1.15,2013-08-31 05:05:00,
2013-08-31 01:10:00,69.5,67.7,29.74,WSW,239,0.0,7.0,94,0.00,,,0.00,Wunderground v.1.15,2013-08-31 05:10:00,
2013-08-31 01:15:00,69.5,67.7,29.74,WSW,239,0.0,7.0,94,0.00,,,0.00,Wunderground v.1.15,2013-08-31 05:15:00,
2013-08-31 01:20:00,69.4,67.6,29.73,WSW,239,0.0,7.0,94,0.00,,,0.00,Wunderground v.1.15,2013-08-31 05:20:00,
2013-08-31 01:25:00,69.3,67.5,29.73,WSW,239,0.0,7.0,94,0.00,,,0.00,Wunderground v.1.15,2013-08-31 05:25:00,
2013-08-31 01:35:00,69.0,67.2,29.74,WSW,239,0.0,7.0,94,0.00,,,0.00,Wunderground v.1.15,2013-08-31 05:35:00,
2013-08-31 01:40:00,68.9,67.1,29.74,WSW,239,0.0,7.0,94,0.00,,,0.00,Wunderground v.1.15,2013-08-31 05:40:00,
2013-08-31 01:50:00,68.6,66.8,29.74,WSW,239,0.0,7.0,94,0.00,,,0.00,Wunderground v.1.15,2013-08-31 05:50:00,
2013-08-31 02:00:00,68.4,66.6,29.74,WSW,239,0.0,7.0,94,0.00,,,0.00,Wunderground v.1.15,2013-08-31 06:00:00,
2013-08-31 02:05:00,68.3,66.8,29.75,WSW,239,0.0,7.0,95,0.00,,,0.00,Wunderground v.1.15,2013-08-31 06:05:00,
2013-08-31 02:10:00,68.3,66.8,29.75,WSW,239,0.0,7.0,95,0.00,,,0.00,Wunderground v.1.15,2013-08-31 06:10:00,
2013-08-31 02:15:00,68.3,66.8,29.75,WSW,239,0.0,7.0,95,0.00,,,0.00,Wunderground v.1.15,2013-08-31 06:15:00,
2013-08-31 02:20:00,68.3,66.8,29.75,WSW,239,0.0,7.0,95,0.00,,,0.00,Wunderground v.1.15,2013-08-31 06:20:00,
2013-08-31 02:25:00,68.3,66.8,29.75,WSW,239,0.0,7.0,95,0.00,,,0.00,Wunderground v.1.15,2013-08-31 06:25:00,
2013-08-31 02:30:00,68.3,66.8,29.75,WSW,239,0.0,7.0,95,0.00,,,0.00,Wunderground v.1.15,2013-08-31 06:30:00,
2013-08-31 02:35:00,68.2,66.7,29.75,WSW,239,0.0,7.0,95,0.00,,,0.00,Wunderground v.1.15,2013-08-31 06:35:00,
2013-08-31 02:45:00,68.6,67.1,29.75,WSW,239,0.0,7.0,95,0.00,,,0.00,Wunderground v.1.15,2013-08-31 06:45:00,
2013-08-31 02:50:00,68.8,67.3,29.75,WSW,239,0.0,7.0,95,0.00,,,0.00,Wunderground v.1.15,2013-08-31 06:50:00,
2013-08-31 02:55:00,68.9,67.7,29.75,WSW,239,0.0,7.0,96,0.00,,,0.00,Wunderground v.1.15,2013-08-31 06:55:00,
2013-08-31 03:05:00,68.8,67.3,29.74,WSW,239,0.0,7.0,95,0.00,,,0.00,Wunderground v.1.15,2013-08-31 07:05:00,
2013-08-31 03:10:00,68.6,67.1,29.74,WSW,239,0.0,7.0,95,0.00,,,0.00,Wunderground v.1.15,2013-08-31 07:10:00,
2013-08-31 03:15:00,68.6,67.1,29.74,WSW,239,0.0,7.0,95,0.00,,,0.00,Wunderground v.1.15,2013-08-31 07:15:00,
2013-08-31 03:20:00,68.6,67.1,29.74,WSW,239,0.0,7.0,95,0.00,,,0.00,Wunderground v.1.15,2013-08-31 07:20:00,
2013-08-31 03:25:00,68.6,67.1,29.74,WSW,239,0.0,7.0,95,0.00,,,0.00,Wunderground v.1.15,2013-08-31 07:25:00,
2013-08-31 03:35:00,68.7,67.2,29.73,WSW,239,0.0,7.0,95,0.00,,,0.00,Wunderground v.1.15,2013-08-31 07:35:00,
2013-08-31 03:40:00,68.9,67.7,29.73,WSW,239,0.0,7.0,96,0.00,,,0.00,Wunderground v.1.15,2013-08-31 07:40:00,
2013-08-31 03:45:00,68.9,67.7,29.73,WSW,239,0.0,7.0,96,0.00,,,0.00,Wunderground v.1.15,2013-08-31 07:45:00,
2013-08-31 03:50:00,68.9,67.7,29.73,WSW,239,0.0,7.0,96,0.00,,,0.00,Wunderground v.1.15,2013-08-31 07:50:00,
2013-08-31 03:55:00,68.9,67.7,29.73,WSW,239,0.0,7.0,96,0.00,,,0.00,Wunderground v.1.15,2013-08-31 07:55:00,
2013-08-31 04:05:00,68.8,67.3,29.73,WSW,239,0.0,7.0,95,0.00,,,0.00,Wunderground v.1.15,2013-08-31 08:05:00,
2013-08-31 04:15:00,68.7,67.2,29.73,WSW,239,0.0,7.0,95,0.00,,,0.00,Wunderground v.1.15,2013-08-31 08:15:00,
2013-08-31 04:20:00,68.7,67.2,29.73,WSW,239,0.0,7.0,95,0.00,,,0.00,Wunderground v.1.15,2013-08-31 08:20:00,
2013-08-31 04:25:00,68.8,67.3,29.73,WSW,239,0.0,7.0,95,0.00,,,0.00,Wunderground v.1.15,2013-08-31 08:25:00,
2013-08-31 04:30:00,68.9,67.7,29.73,WSW,239,0.0,7.0,96,0.00,,,0.00,Wunderground v.1.15,2013-08-31 08:30:00,
2013-08-31 04:35:00,68.9,67.7,29.73,WSW,239,0.0,7.0,96,0.00,,,0.00,Wunderground v.1.15,2013-08-31 08:35:00,
2013-08-31 04:45:00,69.4,68.2,29.74,NNE,32,0.0,7.0,96,0.00,,,0.00,Wunderground v.1.15,2013-08-31 08:45:00,
2013-08-31 04:50:00,69.8,68.6,29.73,SSE,158,0.0,7.0,96,0.00,,,0.00,Wunderground v.1.15,2013-08-31 08:50:00,
2013-08-31 04:55:00,70.0,68.8,29.74,SW,228,0.0,7.0,96,0.00,,,0.00,Wunderground v.1.15,2013-08-31 08:55:00,
2013-08-31 05:00:00,70.2,69.0,29.74,SW,228,0.0,7.0,96,0.00,,,0.00,Wunderground v.1.15,2013-08-31 09:00:00,
2013-08-31 05:05:00,70.3,69.1,29.73,SW,228,0.0,7.0,96,0.00,,,0.00,Wunderground v.1.15,2013-08-31 09:05:00,
2013-08-31 05:15:00,70.7,69.5,29.73,SSW,198,0.0,7.0,96,0.00,,,0.01,Wunderground v.1.15,2013-08-31 09:15:00,
2013-08-31 05:25:00,70.9,69.4,29.72,SW,232,0.0,7.0,95,0.06,,,0.02,Wunderground v.1.15,2013-08-31 09:25:00,
2013-08-31 05:30:00,71.0,69.5,29.70,SSW,198,0.0,7.0,95,0.06,,,0.02,Wunderground v.1.15,2013-08-31 09:30:00,
2013-08-31 05:35:00,71.1,69.6,29.69,SSW,201,0.0,7.0,95,0.05,,,0.02,Wunderground v.1.15,2013-08-31 09:35:00,
2013-08-31 05:40:00,71.0,69.5,29.67,SSW,194,1.0,7.0,95,0.00,,,0.02,Wunderground v.1.15,2013-08-31 09:40:00,
2013-08-31 05:50:00,71.2,69.4,29.63,SSW,200,5.0,5.0,94,0.00,,,0.03,Wunderground v.1.15,2013-08-31 09:50:00,
2013-08-31 05:55:00,71.3,69.5,29.63,SSW,194,3.0,7.0,94,0.00,,,0.03,Wunderground v.1.15,2013-08-31 09:55:00,
2013-08-31 06:00:00,71.3,69.2,29.63,West,259,3.0,3.0,93,0.00,,,0.03,Wunderground v.1.15,2013-08-31 10:00:00,
2013-08-31 06:05:00,71.3,69.2,29.64,SSW,196,2.0,7.0,93,0.00,,,0.03,Wunderground v.1.15,2013-08-31 10:05:00,
2013-08-31 06:10:00,71.3,69.5,29.67,SSW,208,1.0,1.0,94,0.00,,,0.03,Wunderground v.1.15,2013-08-31 10:10:00,
2013-08-31 06:15:00,71.3,69.5,29.69,NNE,18,1.0,4.0,94,0.00,,,0.03,Wunderground v.1.15,2013-08-31 10:15:00,
2013-08-31 06:25:00,71.3,69.5,29.72,North,355,5.0,7.0,94,0.00,,,0.03,Wunderground v.1.15,2013-08-31 10:25:00,
2013-08-31 06:30:00,71.2,69.4,29.72,NNW,344,3.0,3.0,94,0.00,,,0.03,Wunderground v.1.15,2013-08-31 10:30:00,
2013-08-31 06:40:00,71.2,69.4,29.74,North,349,2.0,2.0,94,0.00,,,0.03,Wunderground v.1.15,2013-08-31 10:40:00,
2013-08-31 06:45:00,71.2,69.4,29.74,North,349,2.0,7.0,94,0.00,,,0.03,Wunderground v.1.15,2013-08-31 10:45:00,
2013-08-31 06:50:00,71.2,69.4,29.74,North,349,0.0,7.0,94,0.00,,,0.03,Wunderground v.1.15,2013-08-31 10:50:00,
2013-08-31 07:00:00,70.9,69.1,29.74,North,355,0.0,7.0,94,0.00,,,0.03,Wunderground v.1.15,2013-08-31 11:00:00,
2013-08-31 07:05:00,70.8,69.0,29.73,North,355,0.0,7.0,94,0.00,,,0.03,Wunderground v.1.15,2013-08-31 11:05:00,
2013-08-31 07:10:00,70.7,68.9,29.74,North,355,0.0,7.0,94,0.00,,,0.03,Wunderground v.1.15,2013-08-31 11:10:00,
2013-08-31 07:15:00,70.6,68.8,29.73,North,355,0.0,7.0,94,0.00,,,0.03,Wunderground v.1.15,2013-08-31 11:15:00,
2013-08-31 07:20:00,70.5,68.7,29.74,North,355,0.0,7.0,94,0.00,,,0.03,Wunderground v.1.15,2013-08-31 11:20:00,
2013-08-31 07:30:00,70.3,68.5,29.74,North,355,0.0,7.0,94,0.00,,,0.03,Wunderground v.1.15,2013-08-31 11:30:00,
2013-08-31 07:35:00,70.1,68.3,29.74,West,275,1.0,7.0,94,0.00,,,0.03,Wunderground v.1.15,2013-08-31 11:35:00,
2013-08-31 07:40:00,70.0,68.2,29.74,West,275,1.0,1.0,94,0.00,,,0.03,Wunderground v.1.15,2013-08-31 11:40:00,
2013-08-31 07:45:00,69.9,68.1,29.74,West,275,0.0,7.0,94,0.00,,,0.03,Wunderground v.1.15,2013-08-31 11:45:00,
2013-08-31 07:50:00,69.9,68.1,29.74,West,275,0.0,7.0,94,0.00,,,0.03,Wunderground v.1.15,2013-08-31 11:50:00,
2013-08-31 08:00:00,70.0,68.2,29.75,West,275,0.0,7.0,94,0.00,,,0.03,Wunderground v.1.15,2013-08-31 12:00:00,
2013-08-31 08:05:00,70.1,68.3,29.75,West,275,0.0,7.0,94,0.00,,,0.03,Wunderground v.1.15,2013-08-31 12:05:00,
2013-08-31 08:10:00,70.2,68.4,29.75,West,275,0.0,7.0,94,0.00,,,0.03,Wunderground v.1.15,2013-08-31 12:10:00,
2013-08-31 08:15:00,70.2,68.4,29.74,West,275,0.0,7.0,94,0.00,,,0.03,Wunderground v.1.15,2013-08-31 12:15:00,
2013-08-31 08:20:00,70.3,68.5,29.74,West,275,0.0,7.0,94,0.00,,,0.03,Wunderground v.1.15,2013-08-31 12:20:00,
2013-08-31 08:25:00,70.3,68.5,29.74,West,275,0.0,7.0,94,0.00,,,0.03,Wunderground v.1.15,2013-08-31 12:25:00,
2013-08-31 08:30:00,70.5,68.7,29.75,West,275,0.0,7.0,94,0.00,,,0.03,Wunderground v.1.15,2013-08-31 12:30:00,
2013-08-31 08:40:00,71.2,69.4,29.75,West,275,0.0,7.0,94,0.00,,,0.03,Wunderground v.1.15,2013-08-31 12:40:00,
2013-08-31 08:45:00,71.7,69.9,29.75,West,275,0.0,7.0,94,0.00,,,0.03,Wunderground v.1.15,2013-08-31 12:45:00,
2013-08-31 08:50:00,72.3,70.5,29.75,West,275,0.0,7.0,94,0.00,,,0.03,Wunderground v.1.15,2013-08-31 12:50:00,
2013-08-31 08:55:00,72.7,70.6,29.75,West,275,0.0,7.0,93,0.00,,,0.03,Wunderground v.1.15,2013-08-31 12:55:00,
2013-08-31 09:00:00,73.9,71.1,29.75,West,275,0.0,7.0,91,0.00,,,0.03,Wunderground v.1.15,2013-08-31 13:00:00,
2013-08-31 09:10:00,75.4,71.3,29.75,North,355,0.0,7.0,87,0.00,,,0.03,Wunderground v.1.15,2013-08-31 13:10:00,
2013-08-31 09:15:00,76.2,71.4,29.76,North,355,0.0,7.0,85,0.00,,,0.03,Wunderground v.1.15,2013-08-31 13:15:00,
2013-08-31 09:20:00,76.8,71.2,29.76,NNW,337,0.0,7.0,83,0.00,,,0.03,Wunderground v.1.15,2013-08-31 13:20:00,
2013-08-31 09:25:00,77.4,70.7,29.76,NNW,337,0.0,7.0,80,0.00,,,0.03,Wunderground v.1.15,2013-08-31 13:25:00,
2013-08-31 09:30:00,77.8,71.1,29.76,NNW,337,0.0,7.0,80,0.00,,,0.03,Wunderground v.1.15,2013-08-31 13:30:00,
2013-08-31 09:35:00,78.1,71.1,29.76,NNW,333,0.0,7.0,79,0.00,,,0.03,Wunderground v.1.15,2013-08-31 13:35:00,
2013-08-31 09:45:00,79.2,71.7,29.77,NNW,333,0.0,7.0,78,0.00,,,0.03,Wunderground v.1.15,2013-08-31 13:45:00,
2013-08-31 09:50:00,79.7,71.8,29.77,NNW,333,0.0,7.0,77,0.00,,,0.03,Wunderground v.1.15,2013-08-31 13:50:00,
2013-08-31 09:55:00,79.8,71.6,29.77,NNW,332,0.0,7.0,76,0.00,,,0.03,Wunderground v.1.15,2013-08-31 13:55:00,
2013-08-31 10:00:00,80.3,72.0,29.77,NNW,332,0.0,7.0,76,0.00,,,0.03,Wunderground v.1.15,2013-08-31 14:00:00,
2013-08-31 10:05:00,80.6,72.3,29.78,NNW,332,0.0,7.0,76,0.00,,,0.03,Wunderground v.1.15,2013-08-31 14:05:00,
2013-08-31 10:15:00,80.3,71.6,29.78,WNW,296,0.0,7.0,75,0.00,,,0.03,Wunderground v.1.15,2013-08-31 14:15:00,
2013-08-31 10:20:00,79.9,71.7,29.78,WNW,296,0.0,7.0,76,0.00,,,0.03,Wunderground v.1.15,2013-08-31 14:20:00,
2013-08-31 10:25:00,80.2,72.7,29.78,WNW,296,0.0,7.0,78,0.00,,,0.03,Wunderground v.1.15,2013-08-31 14:25:00,
2013-08-31 10:30:00,80.2,71.6,29.77,WNW,296,0.0,7.0,75,0.00,,,0.03,Wunderground v.1.15,2013-08-31 14:30:00,
2013-08-31 10:40:00,81.1,72.4,29.77,West,270,1.0,7.0,75,0.00,,,0.03,Wunderground v.1.15,2013-08-31 14:40:00,
2013-08-31 10:45:00,81.2,72.1,29.77,West,265,2.0,7.0,74,0.00,,,0.03,Wunderground v.1.15,2013-08-31 14:45:00,
2013-08-31 10:50:00,80.6,72.3,29.77,West,265,1.0,1.0,76,0.00,,,0.03,Wunderground v.1.15,2013-08-31 14:50:00,
2013-08-31 10:55:00,80.2,71.9,29.77,West,263,0.0,7.0,76,0.00,,,0.03,Wunderground v.1.15,2013-08-31 14:55:00,
2013-08-31 11:00:00,80.2,72.7,29.77,WSW,252,0.0,7.0,78,0.00,,,0.03,Wunderground v.1.15,2013-08-31 15:00:00,
2013-08-31 11:05:00,80.9,73.4,29.76,West,266,0.0,7.0,78,0.00,,,0.03,Wunderground v.1.15,2013-08-31 15:05:00,
2013-08-31 11:10:00,81.2,72.5,29.76,SSW,209,0.0,7.0,75,0.00,,,0.03,Wunderground v.1.15,2013-08-31 15:10:00,
2013-08-31 11:15:00,81.8,73.1,29.76,West,277,0.0,7.0,75,0.00,,,0.03,Wunderground v.1.15,2013-08-31 15:15:00,
2013-08-31 11:25:00,83.0,73.9,29.76,SW,216,1.0,7.0,74,0.00,,,0.03,Wunderground v.1.15,2013-08-31 15:25:00,
2013-08-31 11:30:00,83.7,73.7,29.75,WSW,248,1.0,1.0,72,0.00,,,0.03,Wunderground v.1.15,2013-08-31 15:30:00,
2013-08-31 11:35:00,84.1,73.7,29.75,WSW,258,0.0,7.0,71,0.00,,,0.03,Wunderground v.1.15,2013-08-31 15:35:00,
2013-08-31 11:40:00,84.2,73.3,29.75,SW,236,0.0,7.0,70,0.00,,,0.03,Wunderground v.1.15,2013-08-31 15:40:00,
2013-08-31 11:50:00,84.5,72.3,29.75,WSW,247,1.0,7.0,67,0.00,,,0.03,Wunderground v.1.15,2013-08-31 15:50:00,
2013-08-31 12:00:00,84.7,74.3,29.75,WSW,257,3.0,3.0,71,0.00,,,0.03,Wunderground v.1.15,2013-08-31 16:00:00,
2013-08-31 12:05:00,85.2,73.4,29.75,WSW,250,2.0,7.0,68,0.00,,,0.03,Wunderground v.1.15,2013-08-31 16:05:00,
2013-08-31 12:10:00,85.7,74.8,29.75,WSW,256,2.0,7.0,70,0.00,,,0.03,Wunderground v.1.15,2013-08-31 16:10:00,
2013-08-31 12:15:00,85.6,73.8,29.75,WSW,247,1.0,7.0,68,0.00,,,0.03,Wunderground v.1.15,2013-08-31 16:15:00,
2013-08-31 12:20:00,85.7,73.9,29.75,WSW,244,1.0,7.0,68,0.00,,,0.03,Wunderground v.1.15,2013-08-31 16:20:00,
2013-08-31 12:25:00,86.0,74.6,29.75,West,268,2.0,7.0,69,0.00,,,0.03,Wunderground v.1.15,2013-08-31 16:25:00,
2013-08-31 12:30:00,86.1,74.3,29.75,WSW,237,2.0,2.0,68,0.00,,,0.03,Wunderground v.1.15,2013-08-31 16:30:00,
2013-08-31 12:35:00,86.3,74.9,29.75,SW,227,1.0,8.0,69,0.00,,,0.03,Wunderground v.1.15,2013-08-31 16:35:00,
2013-08-31 12:40:00,86.3,74.0,29.75,WSW,248,2.0,2.0,67,0.00,,,0.03,Wunderground v.1.15,2013-08-31 16:40:00,
2013-08-31 12:45:00,86.0,72.9,29.75,South,190,2.0,7.0,65,0.00,,,0.03,Wunderground v.1.15,2013-08-31 16:45:00,
2013-08-31 12:50:00,85.9,74.5,29.74,WSW,254,2.0,2.0,69,0.00,,,0.03,Wunderground v.1.15,2013-08-31 16:50:00,
2013-08-31 13:00:00,86.8,74.5,29.74,WSW,238,1.0,1.0,67,0.00,,,0.03,Wunderground v.1.15,2013-08-31 17:00:00,
2013-08-31 13:10:00,86.1,73.4,29.74,West,267,1.0,7.0,66,0.00,,,0.03,Wunderground v.1.15,2013-08-31 17:10:00,
2013-08-31 13:15:00,85.6,73.8,29.74,SSW,210,1.0,7.0,68,0.00,,,0.03,Wunderground v.1.15,2013-08-31 17:15:00,
2013-08-31 13:20:00,85.1,72.9,29.74,West,259,1.0,7.0,67,0.00,,,0.03,Wunderground v.1.15,2013-08-31 17:20:00,
2013-08-31 13:25:00,84.8,73.1,29.74,WSW,250,1.0,7.0,68,0.00,,,0.03,Wunderground v.1.15,2013-08-31 17:25:00,
2013-08-31 13:30:00,84.4,73.5,29.74,WSW,257,1.0,1.0,70,0.00,,,0.03,Wunderground v.1.15,2013-08-31 17:30:00,
2013-08-31 13:35:00,84.2,73.8,29.74,WSW,257,0.0,7.0,71,0.00,,,0.03,Wunderground v.1.15,2013-08-31 17:35:00,
2013-08-31 13:40:00,84.1,73.7,29.74,SW,215,1.0,1.0,71,0.00,,,0.03,Wunderground v.1.15,2013-08-31 17:40:00,
2013-08-31 13:45:00,84.2,73.8,29.74,West,275,1.0,7.0,71,0.00,,,0.03,Wunderground v.1.15,2013-08-31 17:45:00,
2013-08-31 13:50:00,84.2,73.3,29.74,WSW,252,1.0,7.0,70,0.00,,,0.03,Wunderground v.1.15,2013-08-31 17:50:00,
2013-08-31 13:55:00,84.0,73.6,29.74,West,268,1.0,7.0,71,0.00,,,0.03,Wunderground v.1.15,2013-08-31 17:55:00,
2013-08-31 14:00:00,84.5,74.5,29.74,SSW,195,1.0,1.0,72,0.00,,,0.03,Wunderground v.1.15,2013-08-31 18:00:00,
2013-08-31 14:10:00,84.5,74.1,29.74,SW,217,0.0,7.0,71,0.00,,,0.03,Wunderground v.1.15,2013-08-31 18:10:00,
2013-08-31 14:20:00,83.6,73.2,29.74,WSW,256,0.0,7.0,71,0.00,,,0.03,Wunderground v.1.15,2013-08-31 18:20:00,
2013-08-31 14:25:00,83.5,73.9,29.74,WSW,256,0.0,7.0,73,0.00,,,0.03,Wunderground v.1.15,2013-08-31 18:25:00,
2013-08-31 14:30:00,84.1,75.3,29.73,West,267,0.0,7.0,75,0.00,,,0.03,Wunderground v.1.15,2013-08-31 18:30:00,
2013-08-31 14:35:00,86.0,75.9,29.73,West,269,2.0,7.0,72,0.00,,,0.03,Wunderground v.1.15,2013-08-31 18:35:00,
2013-08-31 14:45:00,85.9,75.4,29.73,West,265,1.0,7.0,71,0.00,,,0.03,Wunderground v.1.15,2013-08-31 18:45:00,
2013-08-31 14:50:00,86.3,74.9,29.73,West,270,0.0,7.0,69,0.00,,,0.03,Wunderground v.1.15,2013-08-31 18:50:00,
2013-08-31 14:55:00,86.8,75.4,29.73,West,262,1.0,7.0,69,0.00,,,0.03,Wunderground v.1.15,2013-08-31 18:55:00,
2013-08-31 15:00:00,86.8,75.0,29.72,West,270,1.0,7.0,68,0.00,,,0.03,Wunderground v.1.15,2013-08-31 19:00:00,
2013-08-31 15:05:00,87.4,75.1,29.72,West,273,2.0,7.0,67,0.00,,,0.03,Wunderground v.1.15,2013-08-31 19:05:00,
2013-08-31 15:10:00,87.7,75.8,29.72,SW,221,2.0,7.0,68,0.00,,,0.03,Wunderground v.1.15,2013-08-31 19:10:00,
2013-08-31 15:20:00,88.2,75.9,29.72,West,266,2.0,2.0,67,0.00,,,0.03,Wunderground v.1.15,2013-08-31 19:20:00,
2013-08-31 15:25:00,88.7,75.9,29.72,SW,217,2.0,7.0,66,0.00,,,0.03,Wunderground v.1.15,2013-08-31 19:25:00,
2013-08-31 15:30:00,88.3,75.5,29.72,West,262,2.0,7.0,66,0.00,,,0.03,Wunderground v.1.15,2013-08-31 19:30:00,
2013-08-31 15:35:00,88.2,76.3,29.72,WSW,239,2.0,7.0,68,0.00,,,0.03,Wunderground v.1.15,2013-08-31 19:35:00,
2013-08-31 15:40:00,88.1,75.3,29.72,West,271,2.0,2.0,66,0.00,,,0.03,Wunderground v.1.15,2013-08-31 19:40:00,
2013-08-31 15:45:00,87.9,76.0,29.72,West,270,2.0,7.0,68,0.00,,,0.03,Wunderground v.1.15,2013-08-31 19:45:00,
2013-08-31 15:50:00,87.9,76.5,29.72,South,183,1.0,1.0,69,0.00,,,0.03,Wunderground v.1.15,2013-08-31 19:50:00,
2013-08-31 15:55:00,87.7,76.3,29.72,West,261,1.0,2.0,69,0.00,,,0.03,Wunderground v.1.15,2013-08-31 19:55:00,
2013-08-31 16:05:00,87.7,76.3,29.71,West,275,1.0,7.0,69,0.00,,,0.03,Wunderground v.1.15,2013-08-31 20:05:00,
2013-08-31 16:10:00,87.1,75.7,29.72,WSW,252,1.0,1.0,69,0.00,,,0.03,Wunderground v.1.15,2013-08-31 20:10:00,
2013-08-31 16:15:00,86.7,76.6,29.71,WSW,252,1.0,7.0,72,0.00,,,0.03,Wunderground v.1.15,2013-08-31 20:15:00,
2013-08-31 16:25:00,86.9,75.9,29.71,WSW,252,0.0,7.0,70,0.00,,,0.03,Wunderground v.1.15,2013-08-31 20:25:00,
2013-08-31 16:30:00,86.5,75.1,29.71,West,273,0.0,7.0,69,0.00,,,0.03,Wunderground v.1.15,2013-08-31 20:30:00,
2013-08-31 16:35:00,87.0,76.9,29.70,West,273,0.0,7.0,72,0.00,,,0.03,Wunderground v.1.15,2013-08-31 20:35:00,
2013-08-31 16:40:00,87.8,75.5,29.70,West,278,0.0,7.0,67,0.00,,,0.03,Wunderground v.1.15,2013-08-31 20:40:00,
2013-08-31 16:45:00,88.5,75.7,29.70,WNW,287,1.0,7.0,66,0.00,,,0.03,Wunderground v.1.15,2013-08-31 20:45:00,
2013-08-31 16:50:00,88.5,75.7,29.70,North,9,1.0,1.0,66,0.00,,,0.03,Wunderground v.1.15,2013-08-31 20:50:00,
2013-08-31 17:00:00,88.1,74.4,29.70,NNE,31,0.0,7.0,64,0.00,,,0.03,Wunderground v.1.15,2013-08-31 21:00:00,
2013-08-31 17:05:00,87.3,74.1,29.69,NNE,15,0.0,7.0,65,0.00,,,0.03,Wunderground v.1.15,2013-08-31 21:05:00,
2013-08-31 17:15:00,86.9,75.5,29.69,NNE,12,1.0,7.0,69,0.00,,,0.03,Wunderground v.1.15,2013-08-31 21:15:00,
2013-08-31 17:20:00,87.2,74.0,29.69,NNW,342,0.0,7.0,65,0.00,,,0.03,Wunderground v.1.15,2013-08-31 21:20:00,
2013-08-31 17:25:00,87.2,74.9,29.69,North,350,1.0,7.0,67,0.00,,,0.03,Wunderground v.1.15,2013-08-31 21:25:00,
2013-08-31 17:35:00,87.0,75.2,29.69,NNW,330,0.0,7.0,68,0.00,,,0.03,Wunderground v.1.15,2013-08-31 21:35:00,
2013-08-31 17:40:00,86.7,75.3,29.69,NNW,330,0.0,7.0,69,0.00,,,0.03,Wunderground v.1.15,2013-08-31 21:40:00,
2013-08-31 17:45:00,86.7,74.0,29.69,NNW,330,0.0,7.0,66,0.00,,,0.03,Wunderground v.1.15,2013-08-31 21:45:00,
2013-08-31 17:50:00,86.7,74.4,29.69,North,5,0.0,7.0,67,0.00,,,0.03,Wunderground v.1.15,2013-08-31 21:50:00,
2013-08-31 17:55:00,86.8,74.5,29.69,NNW,348,0.0,7.0,67,0.00,,,0.03,Wunderground v.1.15,2013-08-31 21:55:00,
2013-08-31 18:05:00,87.0,74.3,29.68,North,355,0.0,7.0,66,0.00,,,0.03,Wunderground v.1.15,2013-08-31 22:05:00,
2013-08-31 18:10:00,87.0,74.7,29.69,North,355,0.0,7.0,67,0.00,,,0.03,Wunderground v.1.15,2013-08-31 22:10:00,
2013-08-31 18:15:00,86.9,75.9,29.68,North,355,0.0,7.0,70,0.00,,,0.03,Wunderground v.1.15,2013-08-31 22:15:00,
2013-08-31 18:20:00,86.5,75.1,29.68,North,355,0.0,7.0,69,0.00,,,0.03,Wunderground v.1.15,2013-08-31 22:20:00,
2013-08-31 18:30:00,85.2,74.3,29.69,West,279,0.0,7.0,70,0.00,,,0.03,Wunderground v.1.15,2013-08-31 22:30:00,
2013-08-31 18:40:00,84.2,73.8,29.69,NNW,333,0.0,7.0,71,0.00,,,0.03,Wunderground v.1.15,2013-08-31 22:40:00,
2013-08-31 18:45:00,83.8,74.2,29.69,NNW,334,0.0,7.0,73,0.00,,,0.03,Wunderground v.1.15,2013-08-31 22:45:00,
2013-08-31 18:50:00,83.4,73.8,29.69,NNW,334,0.0,7.0,73,0.00,,,0.03,Wunderground v.1.15,2013-08-31 22:50:00,
2013-08-31 18:55:00,83.1,73.9,29.69,NNW,334,0.0,7.0,74,0.00,,,0.03,Wunderground v.1.15,2013-08-31 22:55:00,
2013-08-31 19:00:00,82.7,74.0,29.69,NNW,334,0.0,7.0,75,0.00,,,0.03,Wunderground v.1.15,2013-08-31 23:00:00,
2013-08-31 19:05:00,82.3,73.6,29.69,NNW,334,0.0,7.0,75,0.00,,,0.03,Wunderground v.1.15,2013-08-31 23:05:00,
2013-08-31 19:15:00,81.6,73.7,29.70,NNW,334,0.0,7.0,77,0.00,,,0.03,Wunderground v.1.15,2013-08-31 23:15:00,
2013-08-31 19:20:00,81.3,73.8,29.70,NNW,334,0.0,7.0,78,0.00,,,0.03,Wunderground v.1.15,2013-08-31 23:20:00,
2013-08-31 19:25:00,81.0,73.9,29.71,NNW,334,0.0,7.0,79,0.00,,,0.03,Wunderground v.1.15,2013-08-31 23:25:00,
2013-08-31 19:30:00,80.5,74.1,29.71,NNW,334,0.0,7.0,81,0.00,,,0.03,Wunderground v.1.15,2013-08-31 23:30:00,
2013-08-31 19:40:00,79.7,73.7,29.71,NNW,334,0.0,7.0,82,0.00,,,0.03,Wunderground v.1.15,2013-08-31 23:40:00,
2013-08-31 19:50:00,79.3,74.0,29.72,NNW,334,0.0,7.0,84,0.00,,,0.03,Wunderground v.1.15,2013-08-31 23:50:00,
2013-08-31 19:55:00,78.9,73.7,29.72,NNW,334,0.0,7.0,84,0.00,,,0.03,Wunderground v.1.15,2013-08-31 23:55:00,
2013-08-31 20:00:00,78.6,73.7,29.72,NNW,334,0.0,7.0,85,0.00,,,0.03,Wunderground v.1.15,2013-09-01 00:00:00,
2013-08-31 20:05:00,78.2,73.3,29.72,NNW,334,0.0,7.0,85,0.00,,,0.03,Wunderground v.1.15,2013-09-01 00:05:00,
2013-08-31 20:10:00,77.6,73.4,29.72,NNW,334,0.0,7.0,87,0.00,,,0.03,Wunderground v.1.15,2013-09-01 00:10:00,
2013-08-31 20:20:00,76.4,72.6,29.73,NNW,334,0.0,7.0,88,0.00,,,0.03,Wunderground v.1.15,2013-09-01 00:20:00,
2013-08-31 20:25:00,76.1,72.6,29.73,NNW,334,0.0,7.0,89,0.00,,,0.03,Wunderground v.1.15,2013-09-01 00:25:00,
2013-08-31 20:30:00,75.9,72.4,29.73,NNW,334,0.0,7.0,89,0.00,,,0.03,Wunderground v.1.15,2013-09-01 00:30:00,
2013-08-31 20:35:00,75.8,72.7,29.73,NNW,334,0.0,7.0,90,0.00,,,0.03,Wunderground v.1.15,2013-09-01 00:35:00,
2013-08-31 20:45:00,75.1,72.0,29.73,NNW,334,0.0,7.0,90,0.00,,,0.03,Wunderground v.1.15,2013-09-01 00:45:00,
2013-08-31 20:55:00,74.7,71.9,29.73,NNW,334,0.0,7.0,91,0.00,,,0.03,Wunderground v.1.15,2013-09-01 00:55:00,
2013-08-31 21:00:00,74.6,71.8,29.73,NNW,334,0.0,7.0,91,0.00,,,0.03,Wunderground v.1.15,2013-09-01 01:00:00,
2013-08-31 21:05:00,74.4,71.6,29.73,NNW,334,0.0,7.0,91,0.00,,,0.03,Wunderground v.1.15,2013-09-01 01:05:00,
2013-08-31 21:10:00,74.2,71.7,29.73,NNW,334,0.0,7.0,92,0.00,,,0.03,Wunderground v.1.15,2013-09-01 01:10:00,
2013-08-31 21:15:00,74.0,71.5,29.73,NNW,334,0.0,7.0,92,0.00,,,0.03,Wunderground v.1.15,2013-09-01 01:15:00,
2013-08-31 21:25:00,73.7,71.5,29.73,NNW,334,0.0,7.0,93,0.00,,,0.03,Wunderground v.1.15,2013-09-01 01:25:00,
2013-08-31 21:30:00,73.4,70.9,29.73,NNW,334,0.0,7.0,92,0.00,,,0.03,Wunderground v.1.15,2013-09-01 01:30:00,
2013-08-31 21:35:00,73.1,71.0,29.74,NNW,334,0.0,7.0,93,0.00,,,0.03,Wunderground v.1.15,2013-09-01 01:35:00,
2013-08-31 21:45:00,72.7,70.6,29.73,NNW,334,0.0,7.0,93,0.00,,,0.03,Wunderground v.1.15,2013-09-01 01:45:00,
2013-08-31 21:50:00,72.6,70.5,29.73,NNW,334,0.0,7.0,93,0.00,,,0.03,Wunderground v.1.15,2013-09-01 01:50:00,
2013-08-31 21:55:00,72.6,70.5,29.73,NNW,334,0.0,7.0,93,0.00,,,0.03,Wunderground v.1.15,2013-09-01 01:55:00,
2013-08-31 22:05:00,72.3,70.2,29.73,NNW,334,0.0,7.0,93,0.00,,,0.03,Wunderground v.1.15,2013-09-01 02:05:00,
2013-08-31 22:10:00,72.1,70.3,29.73,NNW,334,0.0,7.0,94,0.00,,,0.03,Wunderground v.1.15,2013-09-01 02:10:00,
2013-08-31 22:15:00,72.1,70.3,29.73,NNW,334,0.0,7.0,94,0.00,,,0.03,Wunderground v.1.15,2013-09-01 02:15:00,
2013-08-31 22:20:00,72.0,70.2,29.73,NNW,334,0.0,7.0,94,0.00,,,0.03,Wunderground v.1.15,2013-09-01 02:20:00,
2013-08-31 22:25:00,71.9,70.1,29.73,NNW,334,0.0,7.0,94,0.00,,,0.03,Wunderground v.1.15,2013-09-01 02:25:00,
2013-08-31 22:35:00,71.8,70.0,29.73,NNW,334,0.0,7.0,94,0.00,,,0.03,Wunderground v.1.15,2013-09-01 02:35:00,
2013-08-31 22:40:00,71.8,70.0,29.73,NNW,334,0.0,7.0,94,0.00,,,0.03,Wunderground v.1.15,2013-09-01 02:40:00,
2013-08-31 22:50:00,71.8,70.0,29.74,NNW,334,0.0,7.0,94,0.00,,,0.03,Wunderground v.1.15,2013-09-01 02:50:00,
2013-08-31 22:55:00,71.8,70.3,29.74,NNW,334,0.0,7.0,95,0.00,,,0.03,Wunderground v.1.15,2013-09-01 02:55:00,
2013-08-31 23:00:00,71.9,70.4,29.74,NNW,334,0.0,7.0,95,0.00,,,0.03,Wunderground v.1.15,2013-09-01 03:00:00,
2013-08-31 23:10:00,71.8,70.3,29.74,NNW,334,0.0,7.0,95,0.00,,,0.03,Wunderground v.1.15,2013-09-01 03:10:00,
2013-08-31 23:15:00,71.8,70.3,29.74,NNW,334,0.0,7.0,95,0.00,,,0.03,Wunderground v.1.15,2013-09-01 03:15:00,
2013-08-31 23:20:00,71.9,70.4,29.74,NNW,334,0.0,7.0,95,0.00,,,0.03,Wunderground v.1.15,2013-09-01 03:20:00,
2013-08-31 23:25:00,71.9,70.4,29.74,NNW,334,0.0,7.0,95,0.00,,,0.03,Wunderground v.1.15,2013-09-01 03:25:00,
2013-08-31 23:35:00,71.9,70.4,29.74,NNW,334,0.0,7.0,95,0.00,,,0.03,Wunderground v.1.15,2013-09-01 03:35:00,
2013-08-31 23:45:00,71.9,70.4,29.73,NNW,334,0.0,7.0,95,0.00,,,0.03,Wunderground v.1.15,2013-09-01 03:45:00,
2013-08-31 23:50:00,71.9,70.4,29.74,NNW,334,0.0,7.0,95,0.00,,,0.03,Wunderground v.1.15,2013-09-01 03:50:00,
2013-08-31 23:55:00,71.9,70.4,29.74,NNW,334,0.0,7.0,95,0.00,,,0.03,Wunderground v.1.15,2013-09-01 03:55:00,